createdAt,value
2017-08-05T00:00:38.245Z,31.8
2017-08-05T00:01:35.540Z,31.8
2017-08-05T00:02:35.223Z,31.8
2017-08-05T00:03:40.580Z,31.8
2017-08-05T00:04:38.481Z,31.8
2017-08-05T00:05:35.686Z,31.8
2017-08-05T00:06:35.785Z,31.8
2017-08-05T00:07:35.792Z,31.8
2017-08-05T00:08:40.468Z,31.8
2017-08-05T00:09:40.516Z,31.8
2017-08-05T00:10:35.588Z,31.8
2017-08-05T00:11:40.865Z,31.8
2017-08-05T00:12:35.668Z,31.8
2017-08-05T00:13:38.588Z,31.7
2017-08-05T00:14:35.823Z,31.7
2017-08-05T00:15:35.827Z,31.8
2017-08-05T00:16:40.819Z,31.7
2017-08-05T00:17:41.224Z,31.7
2017-08-05T00:18:39.144Z,31.7
2017-08-05T00:19:39.161Z,31.8
2017-08-05T00:20:41.312Z,31.7
2017-08-05T00:21:36.048Z,31.7
2017-08-05T00:22:36.355Z,31.7
2017-08-05T00:23:36.053Z,31.8
2017-08-05T00:24:36.054Z,31.7
2017-08-05T00:25:41.436Z,31.7
2017-08-05T00:26:41.524Z,31.8
2017-08-05T00:27:36.633Z,31.8
2017-08-05T00:28:39.256Z,31.8
2017-08-05T00:29:41.407Z,31.8
2017-08-05T00:30:36.520Z,31.8
2017-08-05T00:31:41.582Z,31.7
2017-08-05T00:32:36.958Z,31.8
2017-08-05T00:33:39.899Z,31.8
2017-08-05T00:34:39.641Z,31.7
2017-08-05T00:35:37.191Z,31.7
2017-08-05T00:36:39.718Z,31.8
2017-08-05T00:37:41.864Z,31.8
2017-08-05T00:38:39.843Z,31.8
2017-08-05T00:39:39.883Z,31.8
2017-08-05T00:40:37.121Z,31.8
2017-08-05T00:41:42.094Z,31.8
2017-08-05T00:42:37.197Z,31.8
2017-08-05T00:43:37.233Z,31.8
2017-08-05T00:44:40.417Z,31.8
2017-08-05T00:45:40.110Z,31.7
2017-08-05T00:46:37.643Z,31.7
2017-08-05T00:47:37.343Z,31.7
2017-08-05T00:48:40.232Z,31.7
2017-08-05T00:49:37.377Z,31.7
2017-08-05T00:50:37.782Z,31.7
2017-08-05T00:51:40.684Z,31.7
2017-08-05T00:52:40.425Z,31.7
2017-08-05T00:53:37.920Z,31.7
2017-08-05T00:54:37.668Z,31.7
2017-08-05T00:55:40.511Z,31.7
2017-08-05T00:56:38.023Z,31.7
2017-08-05T00:57:37.784Z,31.7
2017-08-05T00:58:42.844Z,31.7
2017-08-05T00:59:37.993Z,31.8
2017-08-05T01:00:38.608Z,31.7
2017-08-05T01:01:43.049Z,31.8
2017-08-05T01:02:43.161Z,31.7
2017-08-05T01:03:41.426Z,31.7
2017-08-05T01:04:38.556Z,31.7
2017-08-05T01:05:41.191Z,31.7
2017-08-05T01:06:39.059Z,31.7
2017-08-05T01:07:43.720Z,31.7
2017-08-05T01:08:41.707Z,31.7
2017-08-05T01:09:41.730Z,31.7
2017-08-05T01:10:43.540Z,31.7
2017-08-05T01:11:38.645Z,31.7
2017-08-05T01:12:44.245Z,31.7
2017-08-05T01:13:44.040Z,31.7
2017-08-05T01:14:43.798Z,31.7
2017-08-05T01:15:44.162Z,31.7
2017-08-05T01:16:43.970Z,31.7
2017-08-05T01:17:39.403Z,31.7
2017-08-05T01:18:44.044Z,31.7
2017-08-05T01:19:44.435Z,31.7
2017-08-05T01:20:42.359Z,31.7
2017-08-05T01:21:39.296Z,31.7
2017-08-05T01:22:39.677Z,31.7
2017-08-05T01:23:44.757Z,31.7
2017-08-05T01:24:42.385Z,31.7
2017-08-05T01:25:44.528Z,31.7
2017-08-05T01:26:44.614Z,31.7
2017-08-05T01:27:42.594Z,31.7
2017-08-05T01:28:44.773Z,31.7
2017-08-05T01:29:46.085Z,31.7
2017-08-05T01:30:43.062Z,31.7
2017-08-05T01:31:43.131Z,31.7
2017-08-05T01:32:40.033Z,31.7
2017-08-05T01:33:45.337Z,31.7
2017-08-05T01:34:42.999Z,31.7
2017-08-05T01:35:40.517Z,31.7
2017-08-05T01:36:43.447Z,31.7
2017-08-05T01:37:43.439Z,31.7
2017-08-05T01:38:43.177Z,31.7
2017-08-05T01:39:45.706Z,31.7
2017-08-05T01:40:40.722Z,31.7
2017-08-05T01:41:40.800Z,31.7
2017-08-05T01:42:40.902Z,31.7
2017-08-05T01:43:43.417Z,31.7
2017-08-05T01:44:40.665Z,31.7
2017-08-05T01:45:45.709Z,31.7
2017-08-05T01:46:46.106Z,31.7
2017-08-05T01:47:41.855Z,31.7
2017-08-05T01:48:43.805Z,31.7
2017-08-05T01:49:41.014Z,31.7
2017-08-05T01:50:41.366Z,31.7
2017-08-05T01:51:43.912Z,31.7
2017-08-05T01:52:41.137Z,31.7
2017-08-05T01:53:46.494Z,31.7
2017-08-05T01:54:46.570Z,31.7
2017-08-05T01:55:44.215Z,31.7
2017-08-05T01:56:44.577Z,31.7
2017-08-05T01:57:41.487Z,31.6
2017-08-05T01:58:46.449Z,31.6
2017-08-05T01:59:44.383Z,31.7
2017-08-05T02:00:41.883Z,31.7
2017-08-05T02:01:46.571Z,31.7
2017-08-05T02:02:41.980Z,31.7
2017-08-05T02:03:41.688Z,31.7
2017-08-05T02:04:42.011Z,31.7
2017-08-05T02:05:44.631Z,31.7
2017-08-05T02:06:42.415Z,31.7
2017-08-05T02:07:42.214Z,31.7
2017-08-05T02:08:47.229Z,31.7
2017-08-05T02:09:42.304Z,31.7
2017-08-05T02:10:47.107Z,31.7
2017-08-05T02:11:42.269Z,31.7
2017-08-05T02:12:45.332Z,31.7
2017-08-05T02:13:42.328Z,31.7
2017-08-05T02:14:42.391Z,31.7
2017-08-05T02:15:42.454Z,31.6
2017-08-05T02:16:42.490Z,31.7
2017-08-05T02:17:42.584Z,31.7
2017-08-05T02:18:42.751Z,31.7
2017-08-05T02:19:45.669Z,31.6
2017-08-05T02:20:42.494Z,31.6
2017-08-05T02:21:47.587Z,31.6
2017-08-05T02:22:45.876Z,31.6
2017-08-05T02:23:45.542Z,31.6
2017-08-05T02:24:42.964Z,31.6
2017-08-05T02:25:42.722Z,31.6
2017-08-05T02:26:47.707Z,31.7
2017-08-05T02:27:42.826Z,31.7
2017-08-05T02:28:43.228Z,31.7
2017-08-05T02:29:42.922Z,31.7
2017-08-05T02:30:48.002Z,31.7
2017-08-05T02:31:43.024Z,31.7
2017-08-05T02:32:45.931Z,31.7
2017-08-05T02:33:46.427Z,31.6
2017-08-05T02:34:43.635Z,31.6
2017-08-05T02:35:48.621Z,31.6
2017-08-05T02:36:46.218Z,31.6
2017-08-05T02:37:46.548Z,31.6
2017-08-05T02:38:43.685Z,31.6
2017-08-05T02:39:46.390Z,31.6
2017-08-05T02:40:46.373Z,31.6
2017-08-05T02:41:44.008Z,31.6
2017-08-05T02:42:44.001Z,31.6
2017-08-05T02:43:48.695Z,31.6
2017-08-05T02:44:48.786Z,31.6
2017-08-05T02:45:46.678Z,31.6
2017-08-05T02:46:44.233Z,31.6
2017-08-05T02:47:44.046Z,31.6
2017-08-05T02:48:44.336Z,31.6
2017-08-05T02:49:44.436Z,31.6
2017-08-05T02:50:46.995Z,31.6
2017-08-05T02:51:49.099Z,31.7
2017-08-05T02:52:47.451Z,31.7
2017-08-05T02:53:44.315Z,31.7
2017-08-05T02:54:44.608Z,31.6
2017-08-05T02:55:47.549Z,31.7
2017-08-05T02:56:44.453Z,31.7
2017-08-05T02:57:47.637Z,31.7
2017-08-05T02:58:44.832Z,31.7
2017-08-05T02:59:44.831Z,31.6
2017-08-05T03:00:44.554Z,31.6
2017-08-05T03:01:47.731Z,31.6
2017-08-05T03:02:49.933Z,31.6
2017-08-05T03:03:49.672Z,31.6
2017-08-05T03:04:44.750Z,31.6
2017-08-05T03:05:50.058Z,31.6
2017-08-05T03:06:50.152Z,31.6
2017-08-05T03:07:50.404Z,31.6
2017-08-05T03:08:48.034Z,31.6
2017-08-05T03:09:50.150Z,31.6
2017-08-05T03:10:50.539Z,31.6
2017-08-05T03:11:45.598Z,31.6
2017-08-05T03:12:50.655Z,31.6
2017-08-05T03:13:50.371Z,31.6
2017-08-05T03:14:50.722Z,31.6
2017-08-05T03:15:48.631Z,31.6
2017-08-05T03:16:50.477Z,31.6
2017-08-05T03:17:45.626Z,31.6
2017-08-05T03:18:45.654Z,31.6
2017-08-05T03:19:45.890Z,31.6
2017-08-05T03:20:50.599Z,31.6
2017-08-05T03:21:48.557Z,31.6
2017-08-05T03:22:48.994Z,31.6
2017-08-05T03:23:46.054Z,31.6
2017-08-05T03:24:51.025Z,31.6
2017-08-05T03:25:48.913Z,31.6
2017-08-05T03:26:48.992Z,31.6
2017-08-05T03:27:46.208Z,31.6
2017-08-05T03:28:49.104Z,31.6
2017-08-05T03:29:45.957Z,31.6
2017-08-05T03:30:51.275Z,31.6
2017-08-05T03:31:51.035Z,31.6
2017-08-05T03:32:46.141Z,31.6
2017-08-05T03:33:46.478Z,31.6
2017-08-05T03:34:51.275Z,31.6
2017-08-05T03:35:46.410Z,31.5
2017-08-05T03:36:46.985Z,31.6
2017-08-05T03:37:51.744Z,31.6
2017-08-05T03:38:46.798Z,31.6
2017-08-05T03:39:51.716Z,31.6
2017-08-05T03:40:46.562Z,31.6
2017-08-05T03:41:46.558Z,31.6
2017-08-05T03:42:49.717Z,31.6
2017-08-05T03:43:51.962Z,31.6
2017-08-05T03:44:51.770Z,31.6
2017-08-05T03:45:51.965Z,31.6
2017-08-05T03:46:51.873Z,31.6
2017-08-05T03:47:47.837Z,31.6
2017-08-05T03:48:48.612Z,31.6
2017-08-05T03:49:52.100Z,31.6
2017-08-05T03:50:47.501Z,31.6
2017-08-05T03:51:47.507Z,31.5
2017-08-05T03:52:47.214Z,31.5
2017-08-05T03:53:47.313Z,31.5
2017-08-05T03:54:47.907Z,31.5
2017-08-05T03:55:50.595Z,31.5
2017-08-05T03:56:47.735Z,31.5
2017-08-05T03:57:50.376Z,31.5
2017-08-05T03:58:50.408Z,31.6
2017-08-05T03:59:47.626Z,31.6
2017-08-05T04:00:48.311Z,31.6
2017-08-05T04:01:50.987Z,31.6
2017-08-05T04:02:53.125Z,31.5
2017-08-05T04:03:50.753Z,31.5
2017-08-05T04:04:48.214Z,31.5
2017-08-05T04:05:51.199Z,31.6
2017-08-05T04:06:51.583Z,31.6
2017-08-05T04:07:51.046Z,31.6
2017-08-05T04:08:48.279Z,31.5
2017-08-05T04:09:51.452Z,31.5
2017-08-05T04:10:51.541Z,31.6
2017-08-05T04:11:48.448Z,31.5
2017-08-05T04:12:49.117Z,31.6
2017-08-05T04:13:53.833Z,31.5
2017-08-05T04:14:51.778Z,31.5
2017-08-05T04:15:54.007Z,31.5
2017-08-05T04:16:48.798Z,31.5
2017-08-05T04:17:54.151Z,31.5
2017-08-05T04:18:54.206Z,31.5
2017-08-05T04:19:49.291Z,31.5
2017-08-05T04:20:54.020Z,31.5
2017-08-05T04:21:49.132Z,31.5
2017-08-05T04:22:52.301Z,31.5
2017-08-05T04:23:49.202Z,31.5
2017-08-05T04:24:49.860Z,31.5
2017-08-05T04:25:49.348Z,31.5
2017-08-05T04:26:49.455Z,31.5
2017-08-05T04:27:52.650Z,31.5
2017-08-05T04:28:49.754Z,31.5
2017-08-05T04:29:49.851Z,31.5
2017-08-05T04:30:49.967Z,31.5
2017-08-05T04:31:49.633Z,31.5
2017-08-05T04:32:50.026Z,31.5
2017-08-05T04:33:54.712Z,31.5
2017-08-05T04:34:55.067Z,31.5
2017-08-05T04:35:49.877Z,31.5
2017-08-05T04:36:50.242Z,31.5
2017-08-05T04:37:54.984Z,31.5
2017-08-05T04:38:53.257Z,31.5
2017-08-05T04:39:55.120Z,31.5
2017-08-05T04:40:50.551Z,31.5
2017-08-05T04:41:50.256Z,31.5
2017-08-05T04:42:50.820Z,31.5
2017-08-05T04:43:53.165Z,31.5
2017-08-05T04:44:50.630Z,31.5
2017-08-05T04:45:53.200Z,31.5
2017-08-05T04:46:55.363Z,31.5
2017-08-05T04:47:55.439Z,31.5
2017-08-05T04:48:50.818Z,31.5
2017-08-05T04:49:50.888Z,31.5
2017-08-05T04:50:53.815Z,31.5
2017-08-05T04:51:50.641Z,31.5
2017-08-05T04:52:50.913Z,31.5
2017-08-05T04:53:53.879Z,31.5
2017-08-05T04:54:51.054Z,31.5
2017-08-05T04:55:51.123Z,31.5
2017-08-05T04:56:54.070Z,31.5
2017-08-05T04:57:56.272Z,31.5
2017-08-05T04:58:53.959Z,31.5
2017-08-05T04:59:51.064Z,31.5
2017-08-05T05:00:51.500Z,31.5
2017-08-05T05:01:51.490Z,31.5
2017-08-05T05:02:56.230Z,31.5
2017-08-05T05:03:51.326Z,31.5
2017-08-05T05:04:51.407Z,31.5
2017-08-05T05:05:54.323Z,31.5
2017-08-05T05:06:54.688Z,31.5
2017-08-05T05:07:51.890Z,31.5
2017-08-05T05:08:51.876Z,31.5
2017-08-05T05:09:54.561Z,31.5
2017-08-05T05:10:54.531Z,31.5
2017-08-05T05:11:54.558Z,31.5
2017-08-05T05:12:52.415Z,31.5
2017-08-05T05:13:51.796Z,31.5
2017-08-05T05:14:51.897Z,31.5
2017-08-05T05:15:55.149Z,31.5
2017-08-05T05:16:52.299Z,31.5
2017-08-05T05:17:54.859Z,31.5
2017-08-05T05:18:52.413Z,31.5
2017-08-05T05:19:55.297Z,31.5
2017-08-05T05:20:54.991Z,31.5
2017-08-05T05:21:55.042Z,31.5
2017-08-05T05:22:57.547Z,31.5
2017-08-05T05:23:52.341Z,31.5
2017-08-05T05:24:55.847Z,31.5
2017-08-05T05:25:52.458Z,31.5
2017-08-05T05:26:52.758Z,31.5
2017-08-05T05:27:57.845Z,31.5
2017-08-05T05:28:53.008Z,31.5
2017-08-05T05:29:57.989Z,31.5
2017-08-05T05:30:58.905Z,31.5
2017-08-05T05:31:52.795Z,31.5
2017-08-05T05:32:58.171Z,31.5
2017-08-05T05:33:57.872Z,31.5
2017-08-05T05:34:58.250Z,31.5
2017-08-05T05:35:53.236Z,31.5
2017-08-05T05:36:53.307Z,31.5
2017-08-05T05:37:53.404Z,31.5
2017-08-05T05:38:58.391Z,31.5
2017-08-05T05:39:53.222Z,31.5
2017-08-05T05:40:58.509Z,31.5
2017-08-05T05:41:53.585Z,31.5
2017-08-05T05:42:56.477Z,31.6
2017-08-05T05:43:53.351Z,31.6
2017-08-05T05:44:53.434Z,31.6
2017-08-05T05:45:56.356Z,31.6
2017-08-05T05:46:53.874Z,31.6
2017-08-05T05:47:56.481Z,31.6
2017-08-05T05:48:54.306Z,31.6
2017-08-05T05:49:54.024Z,31.6
2017-08-05T05:50:59.089Z,31.6
2017-08-05T05:51:54.142Z,31.6
2017-08-05T05:52:56.783Z,31.5
2017-08-05T05:53:54.273Z,31.6
2017-08-05T05:54:59.289Z,31.6
2017-08-05T05:55:54.063Z,31.6
2017-08-05T05:56:57.315Z,31.6
2017-08-05T05:57:59.126Z,31.6
2017-08-05T05:58:54.538Z,31.5
2017-08-05T05:59:54.638Z,31.5
2017-08-05T06:00:54.950Z,31.5
2017-08-05T06:01:54.435Z,31.5
2017-08-05T06:02:57.364Z,31.5
2017-08-05T06:03:54.542Z,31.5
2017-08-05T06:04:54.670Z,31.6
2017-08-05T06:05:54.973Z,31.6
2017-08-05T06:06:59.921Z,31.6
2017-08-05T06:07:54.984Z,31.6
2017-08-05T06:08:55.088Z,31.5
2017-08-05T06:09:59.757Z,31.6
2017-08-05T06:11:00.120Z,31.6
2017-08-05T06:12:01.151Z,31.6
2017-08-05T06:12:58.413Z,31.6
2017-08-05T06:13:55.023Z,31.6
2017-08-05T06:15:00.014Z,31.6
2017-08-05T06:15:55.069Z,31.6
2017-08-05T06:16:55.418Z,31.6
2017-08-05T06:17:55.395Z,31.6
2017-08-05T06:18:55.490Z,31.6
2017-08-05T06:20:00.448Z,31.6
2017-08-05T06:20:58.082Z,31.6
2017-08-05T06:21:55.606Z,31.6
2017-08-05T06:22:55.705Z,31.6
2017-08-05T06:24:00.660Z,31.6
2017-08-05T06:24:56.031Z,31.6
2017-08-05T06:25:55.569Z,31.6
2017-08-05T06:26:55.540Z,31.6
2017-08-05T06:27:55.573Z,31.6
2017-08-05T06:28:55.583Z,31.6
2017-08-05T06:29:58.788Z,31.6
2017-08-05T06:30:59.028Z,31.6
2017-08-05T06:31:55.672Z,31.6
2017-08-05T06:33:00.646Z,31.6
2017-08-05T06:33:55.649Z,31.6
2017-08-05T06:34:55.741Z,31.6
2017-08-05T06:35:59.007Z,31.6
2017-08-05T06:37:01.486Z,31.6
2017-08-05T06:38:00.948Z,31.6
2017-08-05T06:38:58.888Z,31.6
2017-08-05T06:39:56.403Z,31.6
2017-08-05T06:41:01.154Z,31.6
2017-08-05T06:42:01.526Z,31.6
2017-08-05T06:42:56.948Z,31.6
2017-08-05T06:44:01.637Z,31.6
2017-08-05T06:44:59.584Z,31.6
2017-08-05T06:45:59.323Z,31.6
2017-08-05T06:47:01.789Z,31.6
2017-08-05T06:47:59.782Z,31.7
2017-08-05T06:48:57.192Z,31.7
2017-08-05T06:49:59.867Z,31.7
2017-08-05T06:50:56.770Z,31.6
2017-08-05T06:51:57.076Z,31.6
2017-08-05T06:52:56.778Z,31.6
2017-08-05T06:53:57.174Z,31.6
2017-08-05T06:55:02.529Z,31.6
2017-08-05T06:55:57.314Z,31.6
2017-08-05T06:57:02.388Z,31.6
2017-08-05T06:58:00.010Z,31.6
2017-08-05T06:58:57.496Z,31.6
2017-08-05T07:00:02.607Z,31.6
2017-08-05T07:01:02.564Z,31.6
2017-08-05T07:02:02.650Z,31.6
2017-08-05T07:03:02.332Z,31.6
2017-08-05T07:03:57.399Z,31.6
2017-08-05T07:04:57.478Z,31.6
2017-08-05T07:06:02.879Z,31.6
2017-08-05T07:06:57.831Z,31.6
2017-08-05T07:08:02.611Z,31.6
2017-08-05T07:08:57.976Z,31.6
2017-08-05T07:09:57.786Z,31.6
2017-08-05T07:11:00.676Z,31.6
2017-08-05T07:12:03.137Z,31.6
2017-08-05T07:12:58.421Z,31.6
2017-08-05T07:13:58.245Z,31.6
2017-08-05T07:14:57.932Z,31.6
2017-08-05T07:16:03.308Z,31.6
2017-08-05T07:16:58.127Z,31.6
2017-08-05T07:18:03.187Z,31.6
2017-08-05T07:18:58.881Z,31.6
2017-08-05T07:19:58.642Z,31.6
2017-08-05T07:21:03.614Z,31.6
2017-08-05T07:21:58.655Z,31.6
2017-08-05T07:22:58.651Z,31.6
2017-08-05T07:23:58.357Z,31.6
2017-08-05T07:25:03.662Z,31.6
2017-08-05T07:26:03.715Z,31.6
2017-08-05T07:27:03.449Z,31.6
2017-08-05T07:27:58.821Z,31.6
2017-08-05T07:29:03.896Z,31.6
2017-08-05T07:30:03.645Z,31.6
2017-08-05T07:30:59.041Z,31.6
2017-08-05T07:32:01.990Z,31.6
2017-08-05T07:33:02.112Z,31.6
2017-08-05T07:33:58.934Z,31.6
2017-08-05T07:35:02.117Z,31.6
2017-08-05T07:36:03.920Z,31.6
2017-08-05T07:36:59.582Z,31.6
2017-08-05T07:37:59.137Z,31.6
2017-08-05T07:39:04.447Z,31.6
2017-08-05T07:39:59.223Z,31.6
2017-08-05T07:41:04.524Z,31.6
2017-08-05T07:42:04.232Z,31.6
2017-08-05T07:42:59.890Z,31.6
2017-08-05T07:43:59.683Z,31.7
2017-08-05T07:45:02.583Z,31.7
2017-08-05T07:46:02.593Z,31.7
2017-08-05T07:47:04.395Z,31.7
2017-08-05T07:48:04.785Z,31.6
2017-08-05T07:49:05.184Z,31.7
2017-08-05T07:50:04.968Z,31.7
2017-08-05T07:51:02.559Z,31.7
2017-08-05T07:51:59.771Z,31.7
2017-08-05T07:53:00.161Z,31.7
2017-08-05T07:54:04.931Z,31.7
2017-08-05T07:55:00.290Z,31.7
2017-08-05T07:56:03.304Z,31.7
2017-08-05T07:57:02.988Z,31.7
2017-08-05T07:58:03.379Z,31.7
2017-08-05T07:59:05.580Z,31.7
2017-08-05T08:00:05.381Z,31.7
2017-08-05T08:01:00.494Z,31.7
2017-08-05T08:02:00.513Z,31.7
2017-08-05T08:03:00.612Z,31.7
2017-08-05T08:04:00.676Z,31.7
2017-08-05T08:05:00.967Z,31.7
2017-08-05T08:06:00.778Z,31.7
2017-08-05T08:07:03.657Z,31.7
2017-08-05T08:08:00.864Z,31.7
2017-08-05T08:09:06.177Z,31.7
2017-08-05T08:10:01.282Z,31.7
2017-08-05T08:11:01.331Z,31.7
2017-08-05T08:12:01.049Z,31.7
2017-08-05T08:13:01.128Z,31.7
2017-08-05T08:14:01.233Z,31.7
2017-08-05T08:15:06.239Z,31.7
2017-08-05T08:16:06.282Z,31.8
2017-08-05T08:17:01.365Z,31.8
2017-08-05T08:18:01.417Z,31.8
2017-08-05T08:19:01.394Z,31.8
2017-08-05T08:20:01.405Z,31.8
2017-08-05T08:21:01.532Z,31.8
2017-08-05T08:22:01.875Z,31.8
2017-08-05T08:23:04.406Z,31.8
2017-08-05T08:24:01.941Z,31.8
2017-08-05T08:25:04.817Z,31.9
2017-08-05T08:26:04.892Z,31.9
2017-08-05T08:27:04.993Z,31.9
2017-08-05T08:28:04.995Z,31.8
2017-08-05T08:29:05.060Z,31.8
2017-08-05T08:30:02.010Z,31.8
2017-08-05T08:31:02.366Z,31.8
2017-08-05T08:32:02.373Z,31.8
2017-08-05T08:33:02.440Z,31.8
2017-08-05T08:34:02.838Z,31.8
2017-08-05T08:35:08.707Z,31.8
2017-08-05T08:36:02.544Z,31.8
2017-08-05T08:37:07.995Z,31.8
2017-08-05T08:38:05.469Z,31.8
2017-08-05T08:39:02.569Z,31.8
2017-08-05T08:40:02.674Z,31.8
2017-08-05T08:41:02.700Z,31.8
2017-08-05T08:42:02.687Z,31.8
2017-08-05T08:43:05.352Z,31.8
2017-08-05T08:44:02.601Z,31.8
2017-08-05T08:45:05.460Z,31.8
2017-08-05T08:46:02.960Z,31.8
2017-08-05T08:47:07.756Z,31.9
2017-08-05T08:48:02.872Z,31.9
2017-08-05T08:49:06.047Z,31.9
2017-08-05T08:50:03.261Z,31.9
2017-08-05T08:51:03.270Z,31.9
2017-08-05T08:52:03.421Z,31.9
2017-08-05T08:53:08.090Z,31.9
2017-08-05T08:54:03.495Z,31.9
2017-08-05T08:55:08.152Z,31.9
2017-08-05T08:56:08.579Z,32
2017-08-05T08:57:03.272Z,32
2017-08-05T08:58:03.644Z,32
2017-08-05T08:59:06.287Z,32
2017-08-05T09:00:06.727Z,32
2017-08-05T09:01:06.379Z,32
2017-08-05T09:02:03.602Z,32
2017-08-05T09:03:03.683Z,32.1
2017-08-05T09:04:03.811Z,32.1
2017-08-05T09:05:06.651Z,32.2
2017-08-05T09:06:06.977Z,32.2
2017-08-05T09:07:03.880Z,32.2
2017-08-05T09:08:03.972Z,32.2
2017-08-05T09:09:06.882Z,32.2
2017-08-05T09:10:09.421Z,32.2
2017-08-05T09:11:07.932Z,32.2
2017-08-05T09:12:04.210Z,32.2
2017-08-05T09:13:04.239Z,32.1
2017-08-05T09:14:07.096Z,32.1
2017-08-05T09:15:07.161Z,32.1
2017-08-05T09:16:09.313Z,32.1
2017-08-05T09:17:04.710Z,32.1
2017-08-05T09:18:04.467Z,32.1
2017-08-05T09:19:04.473Z,32.1
2017-08-05T09:20:04.821Z,32
2017-08-05T09:21:09.487Z,32
2017-08-05T09:22:04.859Z,32
2017-08-05T09:23:04.553Z,32
2017-08-05T09:24:07.827Z,32
2017-08-05T09:25:05.079Z,32
2017-08-05T09:26:05.094Z,32
2017-08-05T09:27:04.838Z,32.1
2017-08-05T09:28:04.862Z,32.1
2017-08-05T09:29:07.799Z,32.1
2017-08-05T09:30:10.306Z,32.1
2017-08-05T09:31:10.008Z,32.1
2017-08-05T09:32:05.079Z,32.2
2017-08-05T09:33:08.373Z,32.2
2017-08-05T09:34:05.225Z,32.2
2017-08-05T09:35:08.424Z,32.2
2017-08-05T09:36:05.545Z,32.2
2017-08-05T09:37:08.209Z,32.2
2017-08-05T09:38:05.699Z,32.2
2017-08-05T09:39:05.841Z,32.2
2017-08-05T09:40:05.501Z,32.3
2017-08-05T09:41:05.916Z,32.3
2017-08-05T09:42:10.917Z,32.2
2017-08-05T09:43:05.670Z,32.3
2017-08-05T09:44:10.949Z,32.3
2017-08-05T09:45:10.735Z,32.3
2017-08-05T09:46:06.012Z,32.3
2017-08-05T09:47:06.045Z,32.3
2017-08-05T09:48:05.844Z,32.3
2017-08-05T09:49:06.148Z,32.3
2017-08-05T09:50:06.222Z,32.3
2017-08-05T09:51:10.961Z,32.3
2017-08-05T09:52:11.368Z,32.3
2017-08-05T09:53:11.372Z,32.3
2017-08-05T09:54:11.144Z,32.3
2017-08-05T09:55:06.300Z,32.3
2017-08-05T09:56:11.282Z,32.3
2017-08-05T09:57:06.698Z,32.2
2017-08-05T09:58:06.735Z,32.3
2017-08-05T09:59:09.299Z,32.3
2017-08-05T10:00:06.581Z,32.2
2017-08-05T10:01:11.906Z,32.2
2017-08-05T10:02:10.057Z,32.2
2017-08-05T10:03:11.161Z,32.1
2017-08-05T10:04:12.124Z,32.2
2017-08-05T10:05:12.120Z,32.1
2017-08-05T10:06:10.517Z,32.1
2017-08-05T10:07:10.265Z,32.1
2017-08-05T10:08:13.232Z,32.1
2017-08-05T10:09:08.577Z,32.1
2017-08-05T10:10:10.394Z,32.1
2017-08-05T10:11:12.584Z,32
2017-08-05T10:12:10.517Z,32
2017-08-05T10:13:07.853Z,32
2017-08-05T10:14:13.035Z,32
2017-08-05T10:15:07.906Z,32.1
2017-08-05T10:16:08.086Z,32.1
2017-08-05T10:17:07.884Z,32.1
2017-08-05T10:18:07.876Z,32.1
2017-08-05T10:19:08.044Z,32.1
2017-08-05T10:20:08.345Z,32.1
2017-08-05T10:21:08.317Z,32
2017-08-05T10:22:09.077Z,32
2017-08-05T10:23:11.224Z,32
2017-08-05T10:24:08.141Z,32
2017-08-05T10:25:08.206Z,32
2017-08-05T10:26:08.361Z,32
2017-08-05T10:27:11.077Z,32
2017-08-05T10:28:11.288Z,32
2017-08-05T10:29:11.440Z,31.9
2017-08-05T10:30:11.719Z,31.9
2017-08-05T10:31:13.611Z,31.9
2017-08-05T10:32:13.082Z,31.9
2017-08-05T10:33:08.486Z,31.9
2017-08-05T10:34:11.028Z,32
2017-08-05T10:35:08.281Z,32
2017-08-05T10:36:13.530Z,32
2017-08-05T10:37:08.308Z,32
2017-08-05T10:38:13.269Z,32
2017-08-05T10:39:08.335Z,32.1
2017-08-05T10:40:08.675Z,32.1
2017-08-05T10:41:13.755Z,32.2
2017-08-05T10:42:08.545Z,32.2
2017-08-05T10:43:13.550Z,32.2
2017-08-05T10:44:11.785Z,32.2
2017-08-05T10:45:08.957Z,32.2
2017-08-05T10:46:11.522Z,32.2
2017-08-05T10:47:11.858Z,32.2
2017-08-05T10:48:08.725Z,32.2
2017-08-05T10:49:14.113Z,32.2
2017-08-05T10:50:11.670Z,32.2
2017-08-05T10:51:08.876Z,32.1
2017-08-05T10:52:12.417Z,32.1
2017-08-05T10:53:09.328Z,32.1
2017-08-05T10:54:09.272Z,32
2017-08-05T10:55:12.258Z,32.1
2017-08-05T10:56:12.049Z,32
2017-08-05T10:57:12.128Z,32
2017-08-05T10:58:12.540Z,32
2017-08-05T10:59:12.566Z,32.1
2017-08-05T11:00:10.039Z,32.1
2017-08-05T11:01:14.736Z,32.1
2017-08-05T11:02:12.359Z,32.2
2017-08-05T11:03:09.499Z,32.1
2017-08-05T11:04:09.554Z,32.2
2017-08-05T11:05:09.546Z,32.2
2017-08-05T11:06:15.177Z,32.2
2017-08-05T11:07:09.947Z,32.2
2017-08-05T11:08:09.694Z,32.2
2017-08-05T11:09:12.557Z,32.2
2017-08-05T11:10:14.759Z,32.2
2017-08-05T11:11:15.109Z,32.2
2017-08-05T11:12:10.284Z,32.2
2017-08-05T11:13:14.993Z,32.2
2017-08-05T11:14:13.208Z,32.3
2017-08-05T11:15:12.981Z,32.3
2017-08-05T11:16:11.246Z,32.3
2017-08-05T11:17:10.310Z,32.3
2017-08-05T11:18:10.910Z,32.3
2017-08-05T11:19:13.617Z,32.3
2017-08-05T11:20:15.725Z,32.2
2017-08-05T11:21:10.810Z,32.3
2017-08-05T11:22:10.818Z,32.2
2017-08-05T11:23:14.577Z,32.3
2017-08-05T11:24:16.973Z,32.3
2017-08-05T11:25:15.065Z,32.3
2017-08-05T11:26:17.441Z,32.3
2017-08-05T11:27:10.859Z,32.3
2017-08-05T11:28:10.847Z,32.3
2017-08-05T11:29:10.935Z,32.3
2017-08-05T11:30:11.799Z,32.4
2017-08-05T11:31:15.937Z,32.5
2017-08-05T11:32:13.859Z,32.5
2017-08-05T11:33:16.011Z,32.6
2017-08-05T11:34:11.429Z,32.7
2017-08-05T11:35:16.438Z,32.6
2017-08-05T11:36:11.821Z,32.7
2017-08-05T11:37:14.481Z,32.7
2017-08-05T11:38:11.720Z,32.7
2017-08-05T11:39:11.386Z,32.7
2017-08-05T11:40:11.724Z,32.6
2017-08-05T11:41:11.403Z,32.7
2017-08-05T11:42:16.956Z,32.7
2017-08-05T11:43:11.772Z,32.7
2017-08-05T11:44:11.771Z,32.7
2017-08-05T11:45:11.483Z,32.8
2017-08-05T11:46:16.760Z,32.8
2017-08-05T11:47:16.472Z,32.8
2017-08-05T11:48:14.717Z,32.8
2017-08-05T11:49:11.959Z,32.8
2017-08-05T11:50:16.952Z,32.8
2017-08-05T11:51:16.736Z,32.9
2017-08-05T11:52:11.784Z,32.8
2017-08-05T11:53:11.874Z,32.8
2017-08-05T11:54:15.430Z,32.8
2017-08-05T11:55:14.811Z,32.8
2017-08-05T11:56:12.323Z,32.9
2017-08-05T11:57:12.425Z,32.9
2017-08-05T11:58:12.153Z,32.8
2017-08-05T11:59:17.463Z,32.8
2017-08-05T12:00:12.629Z,32.8
2017-08-05T12:01:12.605Z,32.7
2017-08-05T12:02:12.439Z,32.7
2017-08-05T12:03:15.610Z,32.7
2017-08-05T12:04:17.742Z,32.7
2017-08-05T12:05:12.535Z,32.8
2017-08-05T12:06:13.276Z,32.8
2017-08-05T12:07:13.025Z,32.9
2017-08-05T12:08:12.712Z,32.9
2017-08-05T12:09:12.824Z,32.9
2017-08-05T12:10:18.158Z,32.9
2017-08-05T12:11:16.047Z,32.8
2017-08-05T12:12:18.187Z,32.8
2017-08-05T12:13:18.339Z,32.8
2017-08-05T12:14:13.062Z,32.8
2017-08-05T12:15:18.451Z,32.7
2017-08-05T12:16:13.523Z,32.7
2017-08-05T12:17:13.621Z,32.7
2017-08-05T12:18:16.593Z,32.7
2017-08-05T12:19:13.850Z,32.7
2017-08-05T12:20:13.889Z,32.7
2017-08-05T12:21:13.628Z,32.7
2017-08-05T12:22:17.388Z,32.8
2017-08-05T12:23:16.615Z,32.9
2017-08-05T12:24:14.054Z,33
2017-08-05T12:25:14.096Z,33
2017-08-05T12:26:14.093Z,32.9
2017-08-05T12:27:14.115Z,32.8
2017-08-05T12:28:13.803Z,32.9
2017-08-05T12:29:16.720Z,32.9
2017-08-05T12:30:16.993Z,33.1
2017-08-05T12:31:17.080Z,33.1
2017-08-05T12:32:14.308Z,33.1
2017-08-05T12:33:18.936Z,33
2017-08-05T12:34:16.871Z,33
2017-08-05T12:35:14.061Z,33
2017-08-05T12:36:14.334Z,33
2017-08-05T12:37:19.069Z,33.1
2017-08-05T12:38:14.161Z,33.3
2017-08-05T12:39:17.325Z,33.4
2017-08-05T12:40:14.235Z,33.5
2017-08-05T12:41:14.696Z,33.7
2017-08-05T12:42:17.858Z,33.9
2017-08-05T12:43:14.470Z,34.1
2017-08-05T12:44:19.781Z,34.3
2017-08-05T12:45:19.450Z,34.5
2017-08-05T12:46:14.536Z,34.5
2017-08-05T12:47:14.859Z,34.5
2017-08-05T12:48:14.862Z,34.3
2017-08-05T12:49:14.690Z,34.2
2017-08-05T12:50:17.852Z,34.1
2017-08-05T12:51:17.537Z,34.1
2017-08-05T12:52:15.049Z,34.2
2017-08-05T12:53:14.820Z,34.3
2017-08-05T12:54:20.119Z,34.4
2017-08-05T12:55:20.281Z,34.4
2017-08-05T12:56:20.018Z,34.5
2017-08-05T12:57:17.946Z,34.5
2017-08-05T12:58:20.168Z,34.5
2017-08-05T12:59:20.240Z,34.5
2017-08-05T13:00:15.928Z,34.5
2017-08-05T13:01:18.279Z,34.3
2017-08-05T13:02:15.797Z,34.3
2017-08-05T13:03:20.885Z,34.3
2017-08-05T13:04:15.680Z,34.3
2017-08-05T13:05:15.769Z,34.2
2017-08-05T13:06:21.385Z,34.2
2017-08-05T13:07:20.848Z,34.1
2017-08-05T13:08:16.228Z,34
2017-08-05T13:09:19.168Z,34
2017-08-05T13:10:16.359Z,34
2017-08-05T13:11:16.456Z,34
2017-08-05T13:12:16.396Z,34
2017-08-05T13:13:16.483Z,33.9
2017-08-05T13:14:21.237Z,33.8
2017-08-05T13:15:21.593Z,33.9
2017-08-05T13:16:16.750Z,33.9
2017-08-05T13:17:21.765Z,33.9
2017-08-05T13:18:19.916Z,33.9
2017-08-05T13:19:16.543Z,33.9
2017-08-05T13:20:19.408Z,34
2017-08-05T13:21:16.630Z,34.1
2017-08-05T13:22:22.006Z,34.2